Sebewaing, Michigan
Current Conditions -  °F | °C
As of 5:15 PM on Thursday 23 Oct 2014 (Local Time) from KCFS Reporting Station
Clear Clear  
Wind Chill: 53°   Ceiling: Unl
Heat Index: 53°   Visibility: 10mi
Dew Point: 39°   Wind: 5mph
Humidity: 60%   Direction: 250°WSW
Pressure: 30.14"   Gusts: NA
Location:  43.73°N, 83.45°W
Report Text: KCFS 232115Z AUTO 25004KT 10SM CLR 12/04 A3014 RMK AO2 T01160041
Loading
Personal Weather Stations






























Interactive Weather Map
Tropical Storm Tracking
New forecast layout! Learn more

10-Day Weather Forecast

Advertisements
Track Severe Weather on mobile